createdAt,value
2018-12-22T00:10:47.161Z,96950.22
2018-12-22T00:23:51.110Z,96941.14
2018-12-22T00:39:58.891Z,96953.31
2018-12-22T00:43:13.605Z,96966.83
2018-12-22T00:46:18.523Z,96960.23
2018-12-22T00:52:33.900Z,96955.30
2018-12-22T01:02:11.326Z,96947.69
2018-12-22T01:08:47.039Z,96956.84
2018-12-22T01:28:04.638Z,96959.22
2018-12-22T01:37:47.998Z,96943.78
2018-12-22T01:53:57.310Z,96931.55
2018-12-22T02:09:43.676Z,96935.42
2018-12-22T02:12:56.574Z,96926.89
2018-12-22T02:16:12.670Z,96921.99
2018-12-22T02:25:51.724Z,96919.16
2018-12-22T02:36:19.935Z,96925.62
2018-12-22T02:39:33.678Z,96923.02
2018-12-22T02:59:06.616Z,96931.42
2018-12-22T03:02:25.346Z,96926.14
2018-12-22T03:21:58.847Z,96924.87
2018-12-22T03:25:16.446Z,96922.19
2018-12-22T03:28:05.081Z,96947.28
2018-12-22T03:31:16.743Z,96948.27
2018-12-22T03:40:59.823Z,96943.09
2018-12-22T03:50:02.479Z,96948.16
2018-12-22T03:53:17.244Z,96955.33
2018-12-22T04:02:57.545Z,96929.68
2018-12-22T04:06:06.035Z,96933.11
2018-12-22T04:09:08.896Z,96951.14
2018-12-22T04:15:26.116Z,96949.56
2018-12-22T04:25:00.823Z,96950.98
2018-12-22T04:28:15.071Z,96951.38
2018-12-22T04:31:27.881Z,96958.67
2018-12-22T04:41:17.412Z,96974.02
2018-12-22T04:54:16.908Z,96970.94
2018-12-22T05:00:34.979Z,96976.42
2018-12-22T05:07:10.117Z,96970.58
2018-12-22T05:10:16.544Z,96954.68
2018-12-22T05:19:51.256Z,96942.25
2018-12-22T05:29:40.067Z,96946.86
2018-12-22T05:32:43.773Z,96948.20
2018-12-22T05:55:27.876Z,96943.26
2018-12-22T06:15:22.978Z,96958.56
2018-12-22T06:21:55.903Z,96946.02
2018-12-22T06:28:22.565Z,96946.97
2018-12-22T06:34:48.889Z,96939.03
2018-12-22T06:41:18.123Z,96939.79
2018-12-22T06:47:53.616Z,96943.45
2018-12-22T06:51:08.758Z,96946.02
2018-12-22T06:54:24.389Z,96942.95
2018-12-22T06:57:38.438Z,96948.81
2018-12-22T07:00:51.895Z,96952.33
2018-12-22T07:07:24.767Z,96930.41
2018-12-22T07:20:26.714Z,96957.62
2018-12-22T07:26:31.017Z,96954.54
2018-12-22T07:33:07.033Z,96936.55
2018-12-22T07:45:59.686Z,96958.77
2018-12-22T07:52:27.878Z,96966.62
2018-12-22T07:55:28.362Z,96959.91
2018-12-22T08:18:01.218Z,96984.47
2018-12-22T08:34:03.183Z,96956.58
2018-12-22T08:37:11.280Z,96952.55
2018-12-22T08:40:25.038Z,96956.46
2018-12-22T08:43:34.102Z,96956.86
2018-12-22T08:50:11.011Z,96970.16
2018-12-22T08:59:49.765Z,96967.75
2018-12-22T09:09:45.762Z,96969.09
2018-12-22T09:12:43.764Z,96972.14
2018-12-22T09:15:59.302Z,96960.45
2018-12-22T09:19:17.800Z,96958.53
2018-12-22T09:22:34.789Z,96940.33
2018-12-22T09:32:23.672Z,96942.42
2018-12-22T09:42:01.942Z,96933.19
2018-12-22T09:55:11.313Z,96931.56
2018-12-22T09:58:10.209Z,96931.56
2018-12-22T10:04:34.570Z,96899.25
2018-12-22T10:14:32.729Z,96873.56
2018-12-22T10:17:49.004Z,96890.89
2018-12-22T10:27:18.851Z,96868.72
2018-12-22T10:30:26.055Z,96866.54
2018-12-22T10:43:04.027Z,96840.34
2018-12-22T10:45:33.467Z,96844.36
2018-12-22T10:48:02.860Z,96846.06
2018-12-22T10:50:32.235Z,96859.88
2018-12-22T10:53:02.239Z,96850.09
2018-12-22T10:55:31.735Z,96849.61
2018-12-22T10:58:01.119Z,96850.95
2018-12-22T11:00:30.509Z,96845.31
2018-12-22T11:03:00.081Z,96840.34
2018-12-22T11:05:29.469Z,96851.43
2018-12-22T11:07:58.877Z,96840.22
2018-12-22T11:10:28.784Z,96833.78
2018-12-22T11:13:00.307Z,96829.02
2018-12-22T11:15:30.822Z,96828.41
2018-12-22T11:18:00.757Z,96829.37
2018-12-22T11:20:30.153Z,96840.10
2018-12-22T11:22:59.581Z,96844.99
2018-12-22T11:25:29.053Z,96852.17
2018-12-22T11:27:59.327Z,96863.78
2018-12-22T11:30:32.978Z,96859.75
2018-12-22T11:33:03.499Z,96855.73
2018-12-22T11:35:34.030Z,96858.30
2018-12-22T11:38:03.436Z,96855.25
2018-12-22T11:40:32.852Z,96857.46
2018-12-22T11:43:02.285Z,96852.92
2018-12-22T11:45:31.656Z,96849.02
2018-12-22T11:48:13.111Z,96856.00
2018-12-22T11:50:42.516Z,96868.08
2018-12-22T11:53:12.008Z,96862.59
2018-12-22T11:55:41.390Z,96855.88
2018-12-22T11:58:10.800Z,96866.62
2018-12-22T12:00:40.184Z,96876.48
2018-12-22T12:03:09.584Z,96880.43
2018-12-22T12:05:39.092Z,96873.33
2018-12-22T12:08:09.559Z,96882.60
2018-12-22T12:10:38.940Z,96871.03
2018-12-22T12:13:08.332Z,96854.06
2018-12-22T12:15:45.824Z,96846.02
2018-12-22T12:18:22.392Z,96846.61
2018-12-22T12:20:51.782Z,96846.22
2018-12-22T12:23:21.168Z,96848.22
2018-12-22T12:25:50.572Z,96842.86
2018-12-22T12:28:20.056Z,96849.05
2018-12-22T12:30:49.453Z,96839.66
2018-12-22T12:33:18.916Z,96842.34
2018-12-22T12:35:48.304Z,96855.77
2018-12-22T12:38:17.740Z,96848.22
2018-12-22T12:40:47.144Z,96844.67
2018-12-22T12:43:16.566Z,96851.66
2018-12-22T12:45:45.996Z,96858.95
2018-12-22T12:48:15.428Z,96863.45
2018-12-22T12:50:45.021Z,96867.96
2018-12-22T12:53:14.429Z,96860.14
2018-12-22T12:55:43.840Z,96863.89
2018-12-22T12:58:13.265Z,96868.87
2018-12-22T13:00:42.773Z,96869.86
2018-12-22T13:03:13.644Z,96868.39
2018-12-22T13:05:43.291Z,96881.34
2018-12-22T13:08:12.733Z,96883.16
2018-12-22T13:10:42.124Z,96884.97
2018-12-22T13:13:16.389Z,96871.63
2018-12-22T13:15:45.845Z,96879.13
2018-12-22T13:18:15.307Z,96873.64
2018-12-22T13:20:44.705Z,96871.95
2018-12-22T13:23:14.245Z,96885.84
2018-12-22T13:25:43.639Z,96900.01
2018-12-22T13:28:13.045Z,96891.80
2018-12-22T13:30:42.460Z,96900.48
2018-12-22T13:33:12.226Z,96913.15
2018-12-22T13:35:41.788Z,96917.09
2018-12-22T13:38:11.192Z,96916.59
2018-12-22T13:40:40.589Z,96911.22
2018-12-22T13:43:10.040Z,96899.73
2018-12-22T13:45:39.444Z,96900.72
2018-12-22T13:48:09.025Z,96876.77
2018-12-22T13:50:39.166Z,96885.09
2018-12-22T13:53:08.696Z,96899.85
2018-12-22T13:55:38.103Z,96891.91
2018-12-22T13:58:07.500Z,96899.49
2018-12-22T14:00:45.190Z,96884.81
2018-12-22T14:03:18.670Z,96882.52
2018-12-22T14:05:48.239Z,96877.63
2018-12-22T14:08:17.632Z,96874.00
2018-12-22T14:10:47.076Z,96881.06
2018-12-22T14:13:16.589Z,96889.23
2018-12-22T14:15:54.022Z,96883.00
2018-12-22T14:19:04.052Z,96896.41
2018-12-22T14:21:33.481Z,96897.40
2018-12-22T14:24:19.149Z,96908.88
2018-12-22T14:26:49.096Z,96923.25
2018-12-22T14:29:18.547Z,96937.14
2018-12-22T14:31:47.956Z,96936.78
2018-12-22T14:34:23.910Z,96952.88
2018-12-22T14:36:53.292Z,96948.58
2018-12-22T14:39:22.687Z,96945.31
2018-12-22T14:41:52.068Z,96941.67
2018-12-22T14:44:21.485Z,96926.05
2018-12-22T14:46:50.879Z,96938.23
2018-12-22T14:49:20.292Z,96932.95
2018-12-22T14:51:49.681Z,96934.30
2018-12-22T14:54:19.098Z,96931.25
2018-12-22T14:56:48.493Z,96929.52
2018-12-22T14:59:20.141Z,96923.31
2018-12-22T15:01:52.899Z,96926.95
2018-12-22T15:04:22.424Z,96935.87
2018-12-22T15:06:51.815Z,96931.84
2018-12-22T15:09:21.245Z,96944.27
2018-12-22T15:11:50.652Z,96959.42
2018-12-22T15:14:20.084Z,96970.63
2018-12-22T15:16:49.509Z,96979.16
2018-12-22T15:19:18.972Z,96980.02
2018-12-22T15:21:52.259Z,96988.47
2018-12-22T15:24:21.671Z,96986.26
2018-12-22T15:26:51.056Z,96986.62
2018-12-22T15:29:20.520Z,96985.20
2018-12-22T15:31:49.964Z,96991.04
2018-12-22T15:34:19.348Z,96987.17
2018-12-22T15:36:48.724Z,96990.45
2018-12-22T15:39:18.160Z,96999.45
2018-12-22T15:41:47.556Z,96998.02
2018-12-22T15:44:17.008Z,97004.23
2018-12-22T15:46:46.443Z,97005.56
2018-12-22T15:49:17.412Z,97005.56
2018-12-22T15:51:46.813Z,97005.20
2018-12-22T15:54:16.200Z,97004.73
2018-12-22T15:56:45.644Z,97016.89
2018-12-22T15:59:15.047Z,97026.67
2018-12-22T16:01:44.444Z,97023.52
2018-12-22T16:04:15.812Z,97021.20
2018-12-22T16:06:45.221Z,97028.37
2018-12-22T16:09:14.708Z,97023.41
2018-12-22T16:11:44.096Z,97027.03
2018-12-22T16:14:13.480Z,97025.22
2018-12-22T16:16:42.920Z,97037.77
2018-12-22T16:19:12.346Z,97027.27
2018-12-22T16:21:41.839Z,97031.45
2018-12-22T16:24:11.294Z,97039.81
2018-12-22T16:26:40.729Z,97039.98
2018-12-22T16:29:15.537Z,97039.98
2018-12-22T16:31:44.996Z,97042.94
2018-12-22T16:34:14.395Z,97057.59
2018-12-22T16:36:43.803Z,97058.46
2018-12-22T16:39:13.229Z,97067.85
2018-12-22T16:41:42.603Z,97072.63
2018-12-22T16:44:16.404Z,97059.86
2018-12-22T16:46:45.864Z,97064.36
2018-12-22T16:49:15.420Z,97058.91
2018-12-22T16:51:44.905Z,97044.15
2018-12-22T16:54:14.347Z,97047.67
2018-12-22T16:56:43.749Z,97057.56
2018-12-22T16:59:13.232Z,97059.27
2018-12-22T17:01:48.840Z,97061.48
2018-12-22T17:04:18.347Z,97054.30
2018-12-22T17:06:47.805Z,97069.89
2018-12-22T17:09:17.229Z,97063.58
2018-12-22T17:11:46.631Z,97073.33
2018-12-22T17:14:16.245Z,97087.15
2018-12-22T17:16:46.281Z,97094.73
2018-12-22T17:19:15.711Z,97096.91
2018-12-22T17:22:51.497Z,97095.20
2018-12-22T17:25:27.355Z,97120.70
2018-12-22T17:27:56.744Z,97130.57
2018-12-22T17:30:26.141Z,97136.80
2018-12-22T17:32:55.521Z,97144.75
2018-12-22T17:35:24.984Z,97159.03
2018-12-22T17:37:54.393Z,97167.56
2018-12-22T17:40:23.828Z,97184.54
2018-12-22T17:42:53.232Z,97201.02
2018-12-22T17:45:22.787Z,97211.27
2018-12-22T17:47:52.208Z,97225.67
2018-12-22T17:50:21.632Z,97235.91
2018-12-22T17:52:51.085Z,97239.94
2018-12-22T17:55:20.824Z,97241.56
2018-12-22T17:57:50.222Z,97247.33
2018-12-22T18:00:20.446Z,97246.35
2018-12-22T18:02:50.039Z,97250.37
2018-12-22T18:05:19.481Z,97269.82
2018-12-22T18:07:48.928Z,97266.77
2018-12-22T18:10:18.372Z,97239.81
2018-12-22T18:12:48.923Z,97250.45
2018-12-22T18:15:20.957Z,97233.86
2018-12-22T18:17:50.365Z,97234.26
2018-12-22T18:20:19.768Z,97230.12
2018-12-22T18:22:49.174Z,97231.83
2018-12-22T18:25:19.111Z,97222.43
2018-12-22T18:27:48.728Z,97223.41
2018-12-22T18:30:18.218Z,97222.94
2018-12-22T18:32:47.739Z,97228.67
2018-12-22T18:35:17.205Z,97241.15
2018-12-22T18:37:46.642Z,97239.80
2018-12-22T18:40:18.795Z,97223.58
2018-12-22T18:42:48.336Z,97214.30
2018-12-22T18:45:17.759Z,97206.13
2018-12-22T18:47:47.200Z,97220.03
2018-12-22T18:50:20.765Z,97226.27
2018-12-22T18:52:50.177Z,97216.98
2018-12-22T18:55:19.597Z,97248.22
2018-12-22T18:57:51.805Z,97255.81
2018-12-22T19:00:22.672Z,97258.79
2018-12-22T19:02:52.539Z,97283.53
2018-12-22T19:05:22.864Z,97287.45
2018-12-22T19:07:55.359Z,97280.34
2018-12-22T19:10:30.270Z,97290.24
2018-12-22T19:12:59.718Z,97301.82
2018-12-22T19:15:29.113Z,97306.72
2018-12-22T19:17:58.512Z,97310.75
2018-12-22T19:20:34.279Z,97311.72
2018-12-22T19:23:04.616Z,97313.06
2018-12-22T19:25:34.032Z,97311.72
2018-12-22T19:28:03.431Z,97302.80
2018-12-22T19:30:32.829Z,97299.06
2018-12-22T19:33:02.272Z,97309.04
2018-12-22T19:35:31.690Z,97295.22
2018-12-22T19:38:01.100Z,97305.48
2018-12-22T19:40:30.536Z,97309.52
2018-12-22T19:43:00.078Z,97305.48
2018-12-22T19:45:29.513Z,97309.87
2018-12-22T19:47:58.893Z,97301.82
2018-12-22T19:50:28.473Z,97297.43
2018-12-22T19:52:57.869Z,97298.77
2018-12-22T19:55:27.305Z,97305.38
2018-12-22T19:58:21.409Z,97319.56
2018-12-22T20:04:50.676Z,97325.41
2018-12-22T20:07:24.628Z,97322.72
2018-12-22T20:09:54.082Z,97337.78
2018-12-22T20:12:23.711Z,97326.67
2018-12-22T20:14:53.120Z,97344.02
2018-12-22T20:17:22.573Z,97345.73
2018-12-22T20:23:46.678Z,97348.41
2018-12-22T20:43:09.569Z,97326.97
2018-12-22T20:46:20.754Z,97329.18
2018-12-22T20:56:03.436Z,97347.47
2018-12-22T21:02:14.456Z,97333.47
2018-12-22T21:08:45.147Z,97360.14
2018-12-22T21:11:17.648Z,97352.84
2018-12-22T21:13:47.049Z,97366.05
2018-12-22T21:16:16.462Z,97370.48
2018-12-22T21:18:46.084Z,97377.95
2018-12-22T21:21:15.689Z,97392.26
2018-12-22T21:23:45.084Z,97380.17
2018-12-22T21:26:14.469Z,97389.86
2018-12-22T21:28:43.896Z,97402.35
2018-12-22T21:31:13.557Z,97395.92
2018-12-22T21:33:42.968Z,97408.02
2018-12-22T21:36:12.486Z,97395.81
2018-12-22T21:38:42.081Z,97401.19
2018-12-22T21:41:11.640Z,97411.46
2018-12-22T21:43:41.264Z,97419.59
2018-12-22T21:46:10.897Z,97420.86
2018-12-22T21:48:40.287Z,97410.12
2018-12-22T21:51:09.889Z,97428.42
2018-12-22T21:53:39.332Z,97441.48
2018-12-22T21:56:12.168Z,97429.39
2018-12-22T21:58:41.747Z,97450.48
2018-12-22T22:01:11.333Z,97451.36
2018-12-22T22:03:40.728Z,97462.58
2018-12-22T22:06:10.177Z,97468.34
2018-12-22T22:08:39.580Z,97467.48
2018-12-22T22:11:08.996Z,97456.73
2018-12-22T22:13:38.525Z,97460.29
2018-12-22T22:16:08.052Z,97434.88
2018-12-22T22:18:37.461Z,97442.94
2018-12-22T22:21:06.883Z,97432.19
2018-12-22T22:23:36.276Z,97432.66
2018-12-22T22:26:05.812Z,97432.77
2018-12-22T22:28:35.192Z,97436.30
2018-12-22T22:31:04.606Z,97450.70
2018-12-22T22:33:33.996Z,97444.45
2018-12-22T22:36:19.179Z,97448.59
2018-12-22T22:39:05.292Z,97440.53
2018-12-22T22:41:36.295Z,97437.52
2018-12-22T22:44:06.136Z,97430.80
2018-12-22T22:46:40.207Z,97425.54
2018-12-22T22:49:09.809Z,97428.70
2018-12-22T22:51:46.038Z,97425.06
2018-12-22T22:54:22.505Z,97425.91
2018-12-22T22:56:55.504Z,97413.45
2018-12-22T22:59:24.941Z,97407.11
2018-12-22T23:01:54.465Z,97403.19
2018-12-22T23:04:23.921Z,97409.90
2018-12-22T23:06:53.393Z,97408.27
2018-12-22T23:09:22.840Z,97409.61
2018-12-22T23:11:52.324Z,97415.48
2018-12-22T23:14:21.768Z,97405.21
2018-12-22T23:16:51.220Z,97393.59
2018-12-22T23:19:20.703Z,97387.75
2018-12-22T23:21:50.159Z,97362.24
2018-12-22T23:24:19.606Z,97382.49
2018-12-22T23:26:49.051Z,97378.53
2018-12-22T23:29:18.504Z,97367.03
2018-12-22T23:31:47.989Z,97349.21
2018-12-22T23:34:17.441Z,97352.27
2018-12-22T23:36:46.864Z,97347.00
2018-12-22T23:39:16.473Z,97350.16
2018-12-22T23:41:45.924Z,97363.22
2018-12-22T23:44:15.392Z,97374.91
2018-12-22T23:46:44.831Z,97386.16
2018-12-22T23:49:14.287Z,97396.49
2018-12-22T23:51:43.729Z,97394.28
2018-12-22T23:54:13.221Z,97398.81
2018-12-22T23:56:42.692Z,97397.07
2018-12-22T23:59:12.467Z,97376.45
